Time;durP1;ratioP1;P1;durP2;ratioP2;P2;SDS_P1;SDS_P2;PMS_P1;PMS_P2;Temp;Humidity;BMP_temperature;BMP_pressure;BME280_temperature;BME280_humidity;BME280_pressure;Samples;Min_cycle;Max_cycle;Signal;HPM_P1;HPM_P2
2022/04/24 00:01:25;;;;;;;6.10;5.70;;;;;;;-141.48;100.00;69781.59;5190740;28;20037;-58
2022/04/24 00:03:56;;;;;;;6.95;6.47;;;;;;;-141.48;100.00;69781.59;5190550;28;20025;-59
2022/04/24 00:06:27;;;;;;;6.70;6.30;;;;;;;-141.48;100.00;69781.59;5190506;28;20037;-57
2022/04/24 00:08:57;;;;;;;6.75;6.15;;;;;;;-141.48;100.00;69781.59;5190702;28;20351;-57
2022/04/24 00:11:30;;;;;;;6.22;5.32;;;;;;;-141.48;100.00;69781.59;5208088;28;20481;-57
2022/04/24 00:16:59;;;;;;;6.82;6.47;;;;;;;-141.48;100.00;69781.59;6089175;22;20050;-78
2022/04/24 00:19:30;;;;;;;6.65;6.13;;;;;;;-141.48;100.00;69781.59;5213698;28;20032;-79
2022/04/24 00:22:01;;;;;;;5.30;5.00;;;;;;;-141.48;100.00;69781.59;5215827;28;20025;-80
2022/04/24 00:24:32;;;;;;;7.38;6.68;;;;;;;-141.48;100.00;69781.59;5198380;28;20029;-80
2022/04/24 00:27:03;;;;;;;6.72;5.75;;;;;;;-141.48;100.00;69781.59;5215508;28;20029;-79
2022/04/24 00:29:34;;;;;;;6.20;5.57;;;;;;;-141.48;100.00;69781.59;5215575;28;20021;-79
2022/04/24 00:32:05;;;;;;;5.97;5.57;;;;;;;-141.48;100.00;69781.59;5198465;28;20075;-79
2022/04/24 00:34:36;;;;;;;6.85;6.35;;;;;;;-141.48;100.00;69781.59;5216930;28;20104;-79
2022/04/24 00:37:07;;;;;;;6.93;6.28;;;;;;;-141.48;100.00;69781.59;5199290;28;20060;-79
2022/04/24 00:39:37;;;;;;;7.45;6.85;;;;;;;-141.48;100.00;69781.59;5216672;28;20033;-79
2022/04/24 00:42:09;;;;;;;6.50;5.88;;;;;;;-141.48;100.00;69781.59;5198948;28;20112;-79
2022/04/24 00:44:40;;;;;;;6.57;6.13;;;;;;;-141.48;100.00;69781.59;5216305;28;20530;-79
2022/04/24 00:47:15;;;;;;;8.90;6.40;;;;;;;-141.48;100.00;69781.59;5215869;28;20075;-79
2022/04/24 00:49:46;;;;;;;6.43;5.82;;;;;;;-141.48;100.00;69781.59;5215703;28;20041;-79
2022/04/24 00:52:17;;;;;;;7.32;6.72;;;;;;;-141.48;100.00;69781.59;5216257;28;20032;-79
2022/04/24 00:54:48;;;;;;;8.15;6.07;;;;;;;-141.48;100.00;69781.59;5197748;28;20055;-79
2022/04/24 00:57:18;;;;;;;5.80;5.40;;;;;;;-141.48;100.00;69781.59;5198503;28;20479;-79
2022/04/24 00:59:49;;;;;;;6.53;6.05;;;;;;;-141.48;100.00;69781.59;5197013;28;20033;-79
2022/04/24 01:02:19;;;;;;;7.53;6.03;;;;;;;-141.48;100.00;69781.59;5197047;28;20029;-78
2022/04/24 01:04:50;;;;;;;5.53;5.15;;;;;;;-141.48;100.00;69781.59;5216962;28;20092;-78
2022/04/24 01:07:21;;;;;;;6.35;5.95;;;;;;;-141.48;100.00;69781.59;5202973;28;20021;-78
2022/04/24 01:09:51;;;;;;;5.90;5.60;;;;;;;-141.48;100.00;69781.59;5203058;28;20037;-79
2022/04/24 01:12:22;;;;;;;6.65;5.57;;;;;;;-141.48;100.00;69781.59;5220581;28;20029;-79
2022/04/24 01:14:52;;;;;;;7.00;6.40;;;;;;;-141.48;100.00;69781.59;5220614;28;20025;-79
2022/04/24 01:17:23;;;;;;;6.97;6.57;;;;;;;-141.48;100.00;69781.59;5223740;28;20035;-79
2022/04/24 01:19:54;;;;;;;6.80;6.25;;;;;;;-141.48;100.00;69781.59;5217851;28;20025;-80
2022/04/24 01:22:25;;;;;;;6.90;6.40;;;;;;;-141.48;100.00;69781.59;5215996;28;20487;-80
2022/04/24 01:24:55;;;;;;;6.50;6.10;;;;;;;-141.48;100.00;69781.59;5197991;28;20026;-79
2022/04/24 01:27:26;;;;;;;5.78;5.38;;;;;;;-141.48;100.00;69781.59;5221114;28;20028;-79
2022/04/24 01:29:56;;;;;;;7.43;5.97;;;;;;;-141.48;100.00;69781.59;5224551;28;20033;-79
2022/04/24 01:32:27;;;;;;;14.13;6.03;;;;;;;-141.48;100.00;69781.59;5224723;28;20044;-79
2022/04/24 01:34:58;;;;;;;5.70;5.40;;;;;;;-141.48;100.00;69781.59;5224080;28;20018;-80
2022/04/24 01:37:28;;;;;;;5.43;5.10;;;;;;;-141.48;100.00;69781.59;5224322;28;20021;-79
2022/04/24 01:39:59;;;;;;;6.63;6.10;;;;;;;-141.48;100.00;69781.59;5224518;28;20025;-79
2022/04/24 01:42:30;;;;;;;6.43;5.93;;;;;;;-141.48;100.00;69781.59;5223374;28;20025;-79
2022/04/24 01:45:00;;;;;;;6.05;5.72;;;;;;;-141.48;100.00;69781.59;5215740;28;20098;-81
2022/04/24 01:47:31;;;;;;;6.55;5.95;;;;;;;-141.48;100.00;69781.59;5215857;28;20025;-80
2022/04/24 01:50:01;;;;;;;6.22;5.82;;;;;;;-141.48;100.00;69781.59;5216092;28;20079;-80
2022/04/24 01:52:32;;;;;;;6.70;6.22;;;;;;;-141.48;100.00;69781.59;5215800;28;20064;-79
2022/04/24 01:55:03;;;;;;;7.75;7.18;;;;;;;-141.48;100.00;69781.59;5223428;28;20030;-80
2022/04/24 01:57:34;;;;;;;6.32;5.93;;;;;;;-141.48;100.00;69781.59;5224747;28;20018;-79
2022/04/24 02:00:05;;;;;;;5.57;5.07;;;;;;;-141.48;100.00;69781.59;5224069;28;20040;-80
2022/04/24 02:02:35;;;;;;;6.88;5.47;;;;;;;-141.48;100.00;69781.59;5224169;28;20031;-79
2022/04/24 02:05:06;;;;;;;6.43;5.82;;;;;;;-141.48;100.00;69781.59;5206145;28;20085;-79
2022/04/24 02:07:37;;;;;;;8.35;7.72;;;;;;;-141.48;100.00;69781.59;5214722;28;20211;-80
2022/04/24 02:10:07;;;;;;;5.57;5.18;;;;;;;-141.48;100.00;69781.59;5214015;28;20030;-80
2022/04/24 02:12:40;;;;;;;6.28;5.68;;;;;;;-141.48;100.00;69781.59;5214909;28;20041;-80
2022/04/24 02:15:11;;;;;;;5.57;5.28;;;;;;;-141.48;100.00;69781.59;5214171;28;20044;-80
2022/04/24 02:17:41;;;;;;;5.65;5.28;;;;;;;-141.48;100.00;69781.59;5213923;28;20026;-80
2022/04/24 02:20:11;;;;;;;5.57;5.28;;;;;;;-141.48;100.00;69781.59;5196531;28;20025;-80
2022/04/24 02:22:42;;;;;;;6.30;5.90;;;;;;;-141.48;100.00;69781.59;5213697;28;20025;-80
2022/04/24 02:25:13;;;;;;;6.13;5.63;;;;;;;-141.48;100.00;69781.59;5213343;28;20053;-80
2022/04/24 02:27:44;;;;;;;6.25;5.85;;;;;;;-141.48;100.00;69781.59;5222363;28;20034;-80
2022/04/24 02:30:14;;;;;;;5.63;5.22;;;;;;;-141.48;100.00;69781.59;5223761;28;20081;-79
2022/04/24 02:32:45;;;;;;;7.30;6.78;;;;;;;-141.48;100.00;69781.59;5206797;28;20056;-79
2022/04/24 02:35:16;;;;;;;5.78;5.40;;;;;;;-141.48;100.00;69781.59;5223204;28;20032;-80
2022/04/24 02:37:46;;;;;;;7.05;6.50;;;;;;;-141.48;100.00;69781.59;5222142;28;20032;-80
2022/04/24 02:40:21;;;;;;;6.22;5.72;;;;;;;-141.48;100.00;69781.59;5214447;28;20033;-80
2022/04/24 02:42:52;;;;;;;6.78;6.30;;;;;;;-141.48;100.00;69781.59;5214246;28;20108;-79
2022/04/24 02:45:23;;;;;;;6.45;6.05;;;;;;;-141.48;100.00;69781.59;5212912;28;20056;-80
2022/04/24 02:47:53;;;;;;;6.30;5.90;;;;;;;-141.48;100.00;69781.59;5213052;28;20026;-81
2022/04/24 02:50:24;;;;;;;6.18;5.80;;;;;;;-141.48;100.00;69781.59;5213108;28;20108;-79
2022/04/24 02:52:56;;;;;;;6.78;6.40;;;;;;;-141.48;100.00;69781.59;5195690;28;20026;-79
2022/04/24 02:55:27;;;;;;;7.50;6.97;;;;;;;-141.48;100.00;69781.59;5213137;28;20033;-79
2022/04/24 02:57:57;;;;;;;6.55;6.07;;;;;;;-141.48;100.00;69781.59;5211970;28;20033;-79
2022/04/24 03:00:39;;;;;;;6.80;6.13;;;;;;;-141.48;100.00;69781.59;5211035;28;20031;-79
2022/04/24 03:03:10;;;;;;;7.00;6.40;;;;;;;-141.48;100.00;69781.59;5212821;28;20037;-79
2022/04/24 03:05:41;;;;;;;7.32;6.68;;;;;;;-141.48;100.00;69781.59;5212579;28;20025;-79
2022/04/24 03:08:12;;;;;;;7.07;6.47;;;;;;;-141.48;100.00;69781.59;5194459;28;20143;-79
2022/04/24 03:10:43;;;;;;;7.20;6.70;;;;;;;-141.48;100.00;69781.59;5211122;28;20112;-79
2022/04/24 03:13:14;;;;;;;7.25;6.75;;;;;;;-141.48;100.00;69781.59;5193817;28;20031;-79
2022/04/24 03:15:44;;;;;;;7.97;7.47;;;;;;;-141.48;100.00;69781.59;5212112;28;20404;-79
2022/04/24 03:18:15;;;;;;;7.45;6.90;;;;;;;-141.48;100.00;69781.59;5194707;28;20118;-78
2022/04/24 03:20:46;;;;;;;7.03;6.53;;;;;;;-141.48;100.00;69781.59;5211755;28;20029;-79
2022/04/24 03:23:16;;;;;;;7.07;6.55;;;;;;;-141.48;100.00;69781.59;5211969;28;20079;-78
2022/04/24 03:25:46;;;;;;;7.40;6.80;;;;;;;-141.48;100.00;69781.59;5212435;28;20055;-79
2022/04/24 03:28:17;;;;;;;7.18;6.68;;;;;;;-141.48;100.00;69781.59;5197134;28;20041;-79
2022/04/24 03:30:48;;;;;;;5.80;5.50;;;;;;;-141.48;100.00;69781.59;5216290;28;20030;-79
2022/04/24 03:33:18;;;;;;;7.63;6.95;;;;;;;-141.48;100.00;69781.59;5216150;28;20363;-79
2022/04/24 03:35:49;;;;;;;7.68;7.18;;;;;;;-141.48;100.00;69781.59;5197882;28;20246;-79
2022/04/24 03:38:19;;;;;;;7.15;6.75;;;;;;;-141.48;100.00;69781.59;5215837;28;20450;-79
2022/04/24 03:40:51;;;;;;;5.05;4.80;;;;;;;-141.48;100.00;69781.59;5215638;28;20032;-78
2022/04/24 03:43:21;;;;;;;8.13;7.63;;;;;;;-141.48;100.00;69781.59;5197934;28;20036;-78
2022/04/24 03:45:52;;;;;;;8.32;7.57;;;;;;;-141.48;100.00;69781.59;5197882;28;20052;-79
2022/04/24 03:48:23;;;;;;;7.53;6.97;;;;;;;-141.48;100.00;69781.59;5215290;28;20087;-79
2022/04/24 03:50:53;;;;;;;7.28;6.88;;;;;;;-141.48;100.00;69781.59;5215920;28;20032;-79
2022/04/24 03:53:24;;;;;;;6.82;6.40;;;;;;;-141.48;100.00;69781.59;5214621;28;20036;-79
2022/04/24 03:55:54;;;;;;;8.27;7.68;;;;;;;-141.48;100.00;69781.59;5214958;28;20022;-79
2022/04/24 03:58:25;;;;;;;10.07;7.38;;;;;;;-141.48;100.00;69781.59;5197518;28;20056;-79
2022/04/24 04:00:55;;;;;;;8.05;7.15;;;;;;;-141.48;100.00;69781.59;5197759;28;20053;-78
2022/04/24 04:03:26;;;;;;;8.23;7.72;;;;;;;-141.48;100.00;69781.59;5214555;28;20076;-79
2022/04/24 04:05:57;;;;;;;6.70;6.28;;;;;;;-141.48;100.00;69781.59;5215362;28;20052;-78
2022/04/24 04:08:28;;;;;;;8.05;7.45;;;;;;;-141.48;100.00;69781.59;5214051;28;20056;-78
2022/04/24 04:10:59;;;;;;;6.88;6.47;;;;;;;-141.48;100.00;69781.59;5196860;28;20021;-78
2022/04/24 04:13:31;;;;;;;7.10;6.75;;;;;;;-141.48;100.00;69781.59;5217096;28;20022;-82
2022/04/24 04:16:02;;;;;;;6.20;5.80;;;;;;;-141.48;100.00;69781.59;5203321;28;20369;-83
2022/04/24 04:18:33;;;;;;;7.80;7.20;;;;;;;-141.48;100.00;69781.59;5203019;28;20032;-79
2022/04/24 04:21:04;;;;;;;8.27;7.18;;;;;;;-141.48;100.00;69781.59;5216162;28;20491;-79
2022/04/24 04:23:35;;;;;;;6.75;6.38;;;;;;;-141.48;100.00;69781.59;5218465;28;20095;-79
2022/04/24 04:26:06;;;;;;;8.63;7.80;;;;;;;-141.48;100.00;69781.59;5200411;28;20025;-78
2022/04/24 04:28:36;;;;;;;7.80;7.13;;;;;;;-141.48;100.00;69781.59;5217516;28;20484;-78
2022/04/24 04:31:08;;;;;;;8.43;7.90;;;;;;;-141.48;100.00;69781.59;5221470;28;20534;-79
2022/04/24 04:33:39;;;;;;;7.18;6.78;;;;;;;-141.48;100.00;69781.59;5204274;28;20059;-79
2022/04/24 04:36:09;;;;;;;7.25;6.75;;;;;;;-141.48;100.00;69781.59;5221267;28;20029;-79
2022/04/24 04:38:40;;;;;;;7.30;6.72;;;;;;;-141.48;100.00;69781.59;5221535;28;20024;-79
2022/04/24 04:41:11;;;;;;;8.40;7.80;;;;;;;-141.48;100.00;69781.59;5221575;28;20087;-79
2022/04/24 04:43:41;;;;;;;9.35;8.65;;;;;;;-141.48;100.00;69781.59;5220334;28;20029;-79
2022/04/24 04:46:12;;;;;;;8.25;7.60;;;;;;;-141.48;100.00;69781.59;5218953;28;20025;-80
2022/04/24 04:48:42;;;;;;;8.93;8.13;;;;;;;-141.48;100.00;69781.59;5218052;28;20017;-79
2022/04/24 04:51:13;;;;;;;9.55;8.82;;;;;;;-141.48;100.00;69781.59;5202753;28;20029;-79
2022/04/24 04:53:43;;;;;;;8.57;8.02;;;;;;;-141.48;100.00;69781.59;5218828;28;20022;-80
2022/04/24 04:56:15;;;;;;;8.30;7.80;;;;;;;-141.48;100.00;69781.59;5215914;28;20055;-79
2022/04/24 04:58:45;;;;;;;8.90;8.10;;;;;;;-141.48;100.00;69781.59;5197878;28;20029;-79
2022/04/24 05:01:16;;;;;;;11.40;10.57;;;;;;;-141.48;100.00;69781.59;5197747;28;20029;-79
2022/04/24 05:03:47;;;;;;;11.60;9.57;;;;;;;-141.48;100.00;69781.59;5215638;28;20030;-79
2022/04/24 05:06:17;;;;;;;10.25;9.52;;;;;;;-141.48;100.00;69781.59;5219402;28;20033;-79
2022/04/24 05:08:47;;;;;;;9.70;9.02;;;;;;;-141.48;100.00;69781.59;5221231;28;20024;-79
2022/04/24 05:11:18;;;;;;;8.90;8.07;;;;;;;-141.48;100.00;69781.59;5198233;28;20041;-79
2022/04/24 05:13:48;;;;;;;10.25;9.52;;;;;;;-141.48;100.00;69781.59;5213429;28;20057;-78
2022/04/24 05:16:19;;;;;;;10.20;9.60;;;;;;;-141.48;100.00;69781.59;5213305;28;20093;-80
2022/04/24 05:18:49;;;;;;;10.13;9.23;;;;;;;-141.48;100.00;69781.59;5213221;28;20385;-79
2022/04/24 05:21:20;;;;;;;9.52;8.80;;;;;;;-141.48;100.00;69781.59;5213109;28;20029;-79
2022/04/24 05:23:52;;;;;;;11.90;10.07;;;;;;;-141.48;100.00;69781.59;5194693;28;20036;-79
2022/04/24 05:26:22;;;;;;;9.85;9.27;;;;;;;-141.48;100.00;69781.59;5213395;28;20491;-78
2022/04/24 05:28:53;;;;;;;9.40;8.75;;;;;;;-141.48;100.00;69781.59;5212615;28;20114;-80
2022/04/24 05:31:23;;;;;;;11.27;9.15;;;;;;;-141.48;100.00;69781.59;5215543;28;20025;-79
2022/04/24 05:33:55;;;;;;;9.77;9.02;;;;;;;-141.48;100.00;69781.59;5217051;28;20034;-79
2022/04/24 05:36:25;;;;;;;10.20;9.40;;;;;;;-141.48;100.00;69781.59;5218295;28;20036;-79
2022/04/24 05:38:56;;;;;;;10.10;9.30;;;;;;;-141.48;100.00;69781.59;5217951;28;20025;-79
2022/04/24 05:41:26;;;;;;;10.10;9.32;;;;;;;-141.48;100.00;69781.59;5219244;28;20184;-80
2022/04/24 05:43:57;;;;;;;11.05;10.25;;;;;;;-141.48;100.00;69781.59;5202464;28;20464;-79
2022/04/24 05:46:27;;;;;;;10.52;9.77;;;;;;;-141.48;100.00;69781.59;5220004;28;20030;-79
2022/04/24 05:49:00;;;;;;;10.65;9.75;;;;;;;-141.48;100.00;69781.59;5202956;28;20032;-79
2022/04/24 05:51:31;;;;;;;11.13;10.23;;;;;;;-141.48;100.00;69781.59;5217679;28;20021;-80
2022/04/24 05:54:02;;;;;;;10.45;9.70;;;;;;;-141.48;100.00;69781.59;5214358;28;20087;-79
2022/04/24 05:56:32;;;;;;;10.18;9.45;;;;;;;-141.48;100.00;69781.59;5215009;28;20087;-80
2022/04/24 05:59:03;;;;;;;10.55;9.85;;;;;;;-141.48;100.00;69781.59;5215003;28;20085;-79
2022/04/24 06:01:34;;;;;;;11.55;10.63;;;;;;;-141.48;100.00;69781.59;5214315;28;20025;-81
2022/04/24 06:04:04;;;;;;;10.40;9.75;;;;;;;-141.48;100.00;69781.59;5213245;28;20085;-80
2022/04/24 06:06:34;;;;;;;16.85;10.30;;;;;;;-141.48;100.00;69781.59;5198020;28;20052;-81
2022/04/24 06:09:06;;;;;;;10.48;9.60;;;;;;;-141.48;100.00;69781.59;5219697;28;20034;-79
2022/04/24 06:11:41;;;;;;;10.15;9.43;;;;;;;-141.48;100.00;69781.59;5220317;28;20124;-79
2022/04/24 06:14:12;;;;;;;11.60;10.45;;;;;;;-141.48;100.00;69781.59;5220018;28;20056;-77
2022/04/24 06:16:42;;;;;;;9.35;8.65;;;;;;;-141.48;100.00;69781.59;5216972;28;20029;-81
2022/04/24 06:19:12;;;;;;;10.93;10.23;;;;;;;-141.48;100.00;69781.59;5245156;23;20048;-59
2022/04/24 06:21:43;;;;;;;10.02;9.43;;;;;;;-141.48;100.00;69781.59;5208114;28;20036;-59
2022/04/24 06:24:13;;;;;;;11.65;10.52;;;;;;;-141.48;100.00;69781.59;5208137;28;20033;-57
2022/04/24 06:26:44;;;;;;;9.73;9.13;;;;;;;-141.48;100.00;69781.59;5208220;28;20556;-57
2022/04/24 06:29:14;;;;;;;9.63;9.07;;;;;;;-141.48;100.00;69781.59;5208167;28;20540;-59
2022/04/24 06:31:45;;;;;;;10.85;10.13;;;;;;;-141.48;100.00;69781.59;5192381;28;20045;-58
2022/04/24 06:34:16;;;;;;;9.98;9.27;;;;;;;-141.48;100.00;69781.59;5207874;28;20027;-57
2022/04/24 06:36:46;;;;;;;11.07;10.23;;;;;;;-141.48;100.00;69781.59;5208251;28;20603;-56
2022/04/24 06:39:16;;;;;;;10.13;9.52;;;;;;;-141.48;100.00;69781.59;5225797;28;20326;-55
2022/04/24 06:41:47;;;;;;;12.60;10.25;;;;;;;-141.48;100.00;69781.59;5208285;28;20031;-57
2022/04/24 06:44:18;;;;;;;9.20;8.48;;;;;;;-141.48;100.00;69781.59;5208103;28;20033;-56
2022/04/24 06:46:49;;;;;;;10.82;9.82;;;;;;;-141.48;100.00;69781.59;5207131;28;20039;-59
2022/04/24 06:49:19;;;;;;;10.15;9.32;;;;;;;-141.48;100.00;69781.59;5208221;28;20386;-55
2022/04/24 06:51:50;;;;;;;10.93;10.20;;;;;;;-141.48;100.00;69781.59;5207966;28;20037;-56
2022/04/24 06:54:20;;;;;;;9.68;9.02;;;;;;;-141.48;100.00;69781.59;5207657;28;20020;-60
2022/04/24 06:56:51;;;;;;;10.38;9.75;;;;;;;-141.48;100.00;69781.59;5208196;28;20063;-57
2022/04/24 06:59:21;;;;;;;8.80;8.18;;;;;;;-141.48;100.00;69781.59;5225746;28;20033;-58
2022/04/24 07:01:52;;;;;;;11.10;10.18;;;;;;;-141.48;100.00;69781.59;5207123;28;20170;-55
2022/04/24 07:04:22;;;;;;;11.18;9.30;;;;;;;-141.48;100.00;69781.59;5197862;28;20022;-55
2022/04/24 07:06:52;;;;;;;10.30;9.60;;;;;;;-141.48;100.00;69781.59;5167215;28;20038;-55
2022/04/24 07:09:23;;;;;;;11.23;10.30;;;;;;;-141.48;100.00;69781.59;5184595;28;20057;-56
2022/04/24 07:11:53;;;;;;;10.95;10.07;;;;;;;-141.48;100.00;69781.59;5167116;28;20489;-55
2022/04/24 07:14:24;;;;;;;8.45;7.95;;;;;;;-141.48;100.00;69781.59;5166757;28;20109;-57
2022/04/24 07:16:54;;;;;;;10.45;9.55;;;;;;;-141.48;100.00;69781.59;5176277;28;20029;-58
2022/04/24 07:19:25;;;;;;;11.02;10.18;;;;;;;-141.48;100.00;69781.59;5186783;28;20052;-58
2022/04/24 07:21:56;;;;;;;11.48;10.45;;;;;;;-141.48;100.00;69781.59;5186197;28;20028;-56
2022/04/24 07:24:27;;;;;;;10.02;9.32;;;;;;;-141.48;100.00;69781.59;5194736;28;20453;-57
2022/04/24 07:26:57;;;;;;;9.70;9.10;;;;;;;-141.48;100.00;69781.59;5205046;28;20052;-57
2022/04/24 07:29:28;;;;;;;10.20;8.45;;;;;;;-141.48;100.00;69781.59;5186793;28;20565;-56
2022/04/24 07:31:58;;;;;;;8.15;7.32;;;;;;;-141.48;100.00;69781.59;5187162;28;20082;-59
2022/04/24 07:34:29;;;;;;;12.02;11.00;;;;;;;-141.48;100.00;69781.59;5186948;28;20025;-59
2022/04/24 07:37:00;;;;;;;8.40;7.80;;;;;;;-141.48;100.00;69781.59;5187220;28;20098;-60
2022/04/24 07:39:31;;;;;;;9.85;9.25;;;;;;;-141.48;100.00;69781.59;5187165;28;20033;-56
2022/04/24 07:42:01;;;;;;;12.65;9.40;;;;;;;-141.48;100.00;69781.59;5187057;28;20033;-56
2022/04/24 07:44:32;;;;;;;9.55;8.77;;;;;;;-141.48;100.00;69781.59;5186849;28;20032;-57
2022/04/24 07:47:02;;;;;;;8.98;8.38;;;;;;;-141.48;100.00;69781.59;5186796;28;20025;-58
2022/04/24 07:49:33;;;;;;;9.77;8.90;;;;;;;-141.48;100.00;69781.59;5187170;28;20037;-58
2022/04/24 07:52:03;;;;;;;16.60;8.65;;;;;;;-141.48;100.00;69781.59;5187316;28;20120;-54
2022/04/24 07:54:34;;;;;;;9.07;8.38;;;;;;;-141.48;100.00;69781.59;5186988;28;20025;-56
2022/04/24 07:57:05;;;;;;;8.82;8.13;;;;;;;-141.48;100.00;69781.59;5187293;28;20041;-56
2022/04/24 07:59:36;;;;;;;9.57;8.98;;;;;;;-141.48;100.00;69781.59;5187222;28;20064;-57
2022/04/24 08:02:06;;;;;;;7.35;6.88;;;;;;;-141.48;100.00;69781.59;5170717;28;20048;-57
2022/04/24 08:04:37;;;;;;;13.13;8.32;;;;;;;-141.48;100.00;69781.59;5186887;28;20078;-57
2022/04/24 08:07:07;;;;;;;7.70;7.20;;;;;;;-141.48;100.00;69781.59;5187187;28;20041;-56
2022/04/24 08:09:38;;;;;;;8.77;7.80;;;;;;;-141.48;100.00;69781.59;5187071;28;20037;-57
2022/04/24 08:12:08;;;;;;;8.30;7.50;;;;;;;-141.48;100.00;69781.59;5187136;28;20025;-58
2022/04/24 08:14:39;;;;;;;8.88;8.27;;;;;;;-141.48;100.00;69781.59;5206836;28;20039;-58
2022/04/24 08:17:09;;;;;;;7.63;7.00;;;;;;;-141.48;100.00;69781.59;5190712;28;20489;-57
2022/04/24 08:19:40;;;;;;;10.52;8.88;;;;;;;-141.48;100.00;69781.59;5190517;28;20033;-54
2022/04/24 08:22:10;;;;;;;8.63;7.93;;;;;;;-141.48;100.00;69781.59;5191561;28;20025;-55
2022/04/24 08:24:41;;;;;;;10.27;9.40;;;;;;;-141.48;100.00;69781.59;5209184;28;20030;-54
2022/04/24 08:27:11;;;;;;;9.45;8.85;;;;;;;-141.48;100.00;69781.59;5190973;28;20021;-57
2022/04/24 08:29:43;;;;;;;9.40;8.80;;;;;;;-141.48;100.00;69781.59;5191307;28;20119;-57
2022/04/24 08:32:13;;;;;;;8.48;7.85;;;;;;;-141.48;100.00;69781.59;5191467;28;20033;-57
2022/04/24 08:34:44;;;;;;;9.00;8.30;;;;;;;-141.48;100.00;69781.59;5191467;28;20401;-57
2022/04/24 08:37:14;;;;;;;9.52;8.68;;;;;;;-141.48;100.00;69781.59;5191356;28;20116;-55
2022/04/24 08:39:45;;;;;;;7.93;7.38;;;;;;;-141.48;100.00;69781.59;5174784;28;20118;-55
2022/04/24 08:42:18;;;;;;;10.95;10.05;;;;;;;-141.48;100.00;69781.59;5189677;28;20493;-55
2022/04/24 08:44:50;;;;;;;10.68;7.68;;;;;;;-141.48;100.00;69781.59;5189427;28;20032;-55
2022/04/24 08:47:20;;;;;;;9.63;8.82;;;;;;;-141.48;100.00;69781.59;5190548;28;20413;-56
2022/04/24 08:49:55;;;;;;;10.25;9.45;;;;;;;-141.48;100.00;69781.59;5190751;28;20025;-57
2022/04/24 08:52:27;;;;;;;10.07;9.13;;;;;;;-141.48;100.00;69781.59;5190562;28;20025;-55
2022/04/24 08:54:59;;;;;;;8.02;7.53;;;;;;;-141.48;100.00;69781.59;5190272;28;20472;-56
2022/04/24 08:57:32;;;;;;;8.35;7.75;;;;;;;-141.48;100.00;69781.59;5190502;28;20505;-59
2022/04/24 09:00:04;;;;;;;8.82;8.10;;;;;;;-141.48;100.00;69781.59;5190322;28;20026;-56
2022/04/24 09:02:35;;;;;;;15.32;9.27;;;;;;;-141.48;100.00;69781.59;5190370;28;20025;-58
2022/04/24 09:05:06;;;;;;;8.52;7.85;;;;;;;-141.48;100.00;69781.59;5190214;28;20079;-56
2022/04/24 09:07:39;;;;;;;8.88;8.18;;;;;;;-141.48;100.00;69781.59;5190272;28;20471;-55
2022/04/24 09:10:12;;;;;;;8.63;8.13;;;;;;;-141.48;100.00;69781.59;5190046;28;20029;-56
2022/04/24 09:12:42;;;;;;;7.88;6.97;;;;;;;-141.48;100.00;69781.59;5190482;28;20056;-58
2022/04/24 09:15:17;;;;;;;7.78;7.20;;;;;;;-141.48;100.00;69781.59;5189959;28;20441;-57
2022/04/24 09:17:48;;;;;;;8.05;7.47;;;;;;;-141.48;100.00;69781.59;5189812;28;20107;-57
2022/04/24 09:20:20;;;;;;;8.98;8.02;;;;;;;-141.48;100.00;69781.59;5189088;28;20056;-57
2022/04/24 09:22:50;;;;;;;9.65;8.95;;;;;;;-141.48;100.00;69781.59;5203889;28;20033;-55
2022/04/24 09:25:37;;;;;;;8.48;7.88;;;;;;;-141.48;100.00;69781.59;5188464;28;20075;-56
2022/04/24 09:28:07;;;;;;;7.50;6.78;;;;;;;-141.48;100.00;69781.59;5207386;28;20026;-57
2022/04/24 09:30:48;;;;;;;7.85;7.32;;;;;;;-141.48;100.00;69781.59;5207034;28;20496;-57
2022/04/24 09:33:19;;;;;;;8.90;8.20;;;;;;;-141.48;100.00;69781.59;5189209;28;20562;-59
2022/04/24 09:35:54;;;;;;;9.75;9.05;;;;;;;-141.48;100.00;69781.59;5206796;28;20389;-60
2022/04/24 09:38:25;;;;;;;8.30;7.68;;;;;;;-141.48;100.00;69781.59;5189166;28;20543;-55
2022/04/24 09:40:55;;;;;;;8.73;8.00;;;;;;;-141.48;100.00;69781.59;5189689;28;20025;-57
2022/04/24 09:43:28;;;;;;;8.55;7.90;;;;;;;-141.48;100.00;69781.59;5188439;28;20028;-55
2022/04/24 09:45:59;;;;;;;9.95;9.25;;;;;;;-141.48;100.00;69781.59;5188804;28;20029;-55
2022/04/24 09:48:29;;;;;;;7.78;7.30;;;;;;;-141.48;100.00;69781.59;5188532;28;20048;-57
2022/04/24 09:51:00;;;;;;;9.05;8.35;;;;;;;-141.48;100.00;69781.59;5189025;28;20037;-53
2022/04/24 09:53:36;;;;;;;12.30;8.05;;;;;;;-141.48;100.00;69781.59;5188748;28;20030;-57
2022/04/24 09:56:08;;;;;;;9.48;8.73;;;;;;;-141.48;100.00;69781.59;5188648;28;20032;-57
2022/04/24 09:58:38;;;;;;;8.15;7.55;;;;;;;-141.48;100.00;69781.59;5188527;28;20538;-58
2022/04/24 10:01:09;;;;;;;8.82;7.38;;;;;;;-141.48;100.00;69781.59;5206857;28;20029;-56
2022/04/24 10:03:40;;;;;;;8.93;8.25;;;;;;;-141.48;100.00;69781.59;5188248;28;20087;-54
2022/04/24 10:06:11;;;;;;;7.05;6.63;;;;;;;-141.48;100.00;69781.59;5206313;28;20029;-59
2022/04/24 10:08:42;;;;;;;7.97;7.28;;;;;;;-141.48;100.00;69781.59;5187965;28;20445;-57
2022/04/24 10:11:12;;;;;;;8.25;7.55;;;;;;;-141.48;100.00;69781.59;5188755;28;20064;-56
2022/04/24 10:13:46;;;;;;;9.45;8.73;;;;;;;-141.48;100.00;69781.59;5205719;28;20049;-59
2022/04/24 10:16:49;;;;;;;8.27;7.50;;;;;;;-141.48;100.00;69781.59;5188268;28;20048;-60
2022/04/24 10:19:29;;;;;;;7.53;7.00;;;;;;;-141.48;100.00;69781.59;5170693;28;20037;-57
2022/04/24 10:22:30;;;;;;;7.68;7.00;;;;;;;-141.48;100.00;69781.59;5205787;28;20512;-59
2022/04/24 10:25:03;;;;;;;8.90;7.50;;;;;;;-141.48;100.00;69781.59;5172973;28;20083;-59
2022/04/24 10:27:44;;;;;;;8.18;7.68;;;;;;;-141.48;100.00;69781.59;5185152;28;20386;-58
2022/04/24 10:30:23;;;;;;;7.53;6.72;;;;;;;-141.48;100.00;69781.59;5167657;28;20029;-55
2022/04/24 10:33:22;;;;;;;7.25;6.65;;;;;;;-141.48;100.00;69781.59;5200070;28;20124;-57
2022/04/24 10:35:59;;;;;;;7.82;7.13;;;;;;;-141.48;100.00;69781.59;5208440;28;20163;-57
2022/04/24 10:38:32;;;;;;;8.13;6.53;;;;;;;-141.48;100.00;69781.59;5208779;28;20517;-56
2022/04/24 10:41:13;;;;;;;7.75;7.13;;;;;;;-141.48;100.00;69781.59;5226099;28;20032;-55
2022/04/24 10:43:46;;;;;;;9.18;8.43;;;;;;;-141.48;100.00;69781.59;5208856;28;20078;-57
2022/04/24 10:46:26;;;;;;;7.10;6.60;;;;;;;-141.48;100.00;69781.59;5192571;28;20389;-55
2022/04/24 10:49:18;;;;;;;7.47;6.97;;;;;;;-141.48;100.00;69781.59;5208261;28;20060;-57
2022/04/24 10:52:03;;;;;;;8.80;7.03;;;;;;;-141.48;100.00;69781.59;5208557;28;20170;-54
2022/04/24 10:54:39;;;;;;;7.45;6.78;;;;;;;-141.48;100.00;69781.59;5208094;28;20447;-60
2022/04/24 10:57:19;;;;;;;7.82;7.07;;;;;;;-141.48;100.00;69781.59;5226001;28;20067;-61
2022/04/24 10:59:52;;;;;;;6.53;6.03;;;;;;;-141.48;100.00;69781.59;5208641;28;20033;-58
2022/04/24 11:02:30;;;;;;;7.22;6.53;;;;;;;-141.48;100.00;69781.59;5208639;28;20504;-56
2022/04/24 11:05:09;;;;;;;8.07;6.93;;;;;;;-141.48;100.00;69781.59;5208148;28;20413;-59
2022/04/24 11:07:40;;;;;;;8.93;8.23;;;;;;;-141.48;100.00;69781.59;5226252;28;20087;-60
2022/04/24 11:10:11;;;;;;;8.02;7.47;;;;;;;-141.48;100.00;69781.59;5226081;28;20060;-57
2022/04/24 11:12:48;;;;;;;7.15;6.55;;;;;;;-141.48;100.00;69781.59;5225784;28;20104;-60
2022/04/24 11:15:18;;;;;;;13.02;6.13;;;;;;;-141.48;100.00;69781.59;5208413;28;20481;-57
2022/04/24 11:17:49;;;;;;;8.25;7.50;;;;;;;-141.48;100.00;69781.59;5207897;28;20082;-57
2022/04/24 11:20:19;;;;;;;9.18;8.43;;;;;;;-141.48;100.00;69781.59;5208070;28;20029;-59
2022/04/24 11:22:52;;;;;;;8.13;7.50;;;;;;;-141.48;100.00;69781.59;5208013;28;20114;-54
2022/04/24 11:25:25;;;;;;;9.35;8.65;;;;;;;-141.48;100.00;69781.59;5207727;28;20508;-58
2022/04/24 11:27:57;;;;;;;7.28;6.75;;;;;;;-141.48;100.00;69781.59;5207666;28;20028;-56
2022/04/24 11:30:33;;;;;;;6.63;5.97;;;;;;;-141.48;100.00;69781.59;5207618;28;20150;-57